sensor_id;sensor_type;location;lat;lon;timestamp;P1;durP1;ratioP1;P2;durP2;ratioP2
13331;SDS011;6735;51.456;12.626;2023-05-10T00:01:39;7.13;;;5.50;;
13331;SDS011;6735;51.456;12.626;2023-05-10T00:04:05;6.10;;;5.60;;
13331;SDS011;6735;51.456;12.626;2023-05-10T00:06:31;5.90;;;5.37;;
13331;SDS011;6735;51.456;12.626;2023-05-10T00:08:57;6.10;;;5.50;;
13331;SDS011;6735;51.456;12.626;2023-05-10T00:11:22;7.03;;;6.33;;
13331;SDS011;6735;51.456;12.626;2023-05-10T00:13:48;6.20;;;5.70;;
13331;SDS011;6735;51.456;12.626;2023-05-10T00:16:13;6.53;;;5.87;;
13331;SDS011;6735;51.456;12.626;2023-05-10T00:18:39;10.17;;;5.90;;
13331;SDS011;6735;51.456;12.626;2023-05-10T00:21:05;6.00;;;5.50;;
13331;SDS011;6735;51.456;12.626;2023-05-10T00:23:31;6.47;;;5.97;;
13331;SDS011;6735;51.456;12.626;2023-05-10T00:25:56;6.13;;;5.53;;
13331;SDS011;6735;51.456;12.626;2023-05-10T00:28:22;6.47;;;5.87;;
13331;SDS011;6735;51.456;12.626;2023-05-10T00:30:47;6.50;;;5.90;;
13331;SDS011;6735;51.456;12.626;2023-05-10T00:33:13;6.10;;;5.57;;
13331;SDS011;6735;51.456;12.626;2023-05-10T00:35:38;6.40;;;5.80;;
13331;SDS011;6735;51.456;12.626;2023-05-10T00:38:04;6.07;;;5.57;;
13331;SDS011;6735;51.456;12.626;2023-05-10T00:40:29;8.20;;;6.23;;
13331;SDS011;6735;51.456;12.626;2023-05-10T00:42:55;6.80;;;5.67;;
13331;SDS011;6735;51.456;12.626;2023-05-10T00:45:21;6.20;;;5.60;;
13331;SDS011;6735;51.456;12.626;2023-05-10T00:47:47;6.70;;;6.10;;
13331;SDS011;6735;51.456;12.626;2023-05-10T00:50:14;7.17;;;5.67;;
13331;SDS011;6735;51.456;12.626;2023-05-10T00:52:40;5.60;;;5.20;;
13331;SDS011;6735;51.456;12.626;2023-05-10T00:55:06;6.00;;;5.50;;
13331;SDS011;6735;51.456;12.626;2023-05-10T00:57:32;6.17;;;5.63;;
13331;SDS011;6735;51.456;12.626;2023-05-10T00:59:58;6.30;;;5.73;;
13331;SDS011;6735;51.456;12.626;2023-05-10T01:02:24;6.73;;;5.83;;
13331;SDS011;6735;51.456;12.626;2023-05-10T01:04:50;5.97;;;5.47;;
13331;SDS011;6735;51.456;12.626;2023-05-10T01:07:16;6.13;;;5.53;;
13331;SDS011;6735;51.456;12.626;2023-05-10T01:09:42;6.00;;;5.50;;
13331;SDS011;6735;51.456;12.626;2023-05-10T01:12:07;7.73;;;5.80;;
13331;SDS011;6735;51.456;12.626;2023-05-10T01:14:33;6.60;;;5.80;;
13331;SDS011;6735;51.456;12.626;2023-05-10T01:17:01;6.73;;;5.90;;
13331;SDS011;6735;51.456;12.626;2023-05-10T01:19:28;6.23;;;5.63;;
13331;SDS011;6735;51.456;12.626;2023-05-10T01:22:00;6.03;;;5.53;;
13331;SDS011;6735;51.456;12.626;2023-05-10T01:27:20;6.20;;;5.60;;
13331;SDS011;6735;51.456;12.626;2023-05-10T01:30:01;7.30;;;5.67;;
13331;SDS011;6735;51.456;12.626;2023-05-10T01:35:37;5.90;;;5.40;;
13331;SDS011;6735;51.456;12.626;2023-05-10T01:38:18;6.00;;;5.50;;
13331;SDS011;6735;51.456;12.626;2023-05-10T01:43:43;6.07;;;5.57;;
13331;SDS011;6735;51.456;12.626;2023-05-10T01:46:20;6.03;;;5.43;;
13331;SDS011;6735;51.456;12.626;2023-05-10T01:49:00;6.30;;;5.80;;
13331;SDS011;6735;51.456;12.626;2023-05-10T01:51:29;6.37;;;5.77;;
13331;SDS011;6735;51.456;12.626;2023-05-10T01:54:04;6.50;;;6.00;;
13331;SDS011;6735;51.456;12.626;2023-05-10T01:56:31;6.67;;;6.07;;
13331;SDS011;6735;51.456;12.626;2023-05-10T01:58:59;6.50;;;5.80;;
13331;SDS011;6735;51.456;12.626;2023-05-10T02:01:30;6.13;;;5.63;;
13331;SDS011;6735;51.456;12.626;2023-05-10T02:03:56;6.70;;;6.03;;
13331;SDS011;6735;51.456;12.626;2023-05-10T02:06:23;6.00;;;5.40;;
13331;SDS011;6735;51.456;12.626;2023-05-10T02:08:50;5.90;;;5.40;;
13331;SDS011;6735;51.456;12.626;2023-05-10T02:11:17;6.97;;;5.60;;
13331;SDS011;6735;51.456;12.626;2023-05-10T02:13:45;6.17;;;5.60;;
13331;SDS011;6735;51.456;12.626;2023-05-10T02:16:13;6.80;;;6.20;;
13331;SDS011;6735;51.456;12.626;2023-05-10T02:18:40;6.07;;;5.57;;
13331;SDS011;6735;51.456;12.626;2023-05-10T02:21:06;7.40;;;6.10;;
13331;SDS011;6735;51.456;12.626;2023-05-10T02:23:33;8.80;;;5.77;;
13331;SDS011;6735;51.456;12.626;2023-05-10T02:26:00;7.03;;;6.37;;
13331;SDS011;6735;51.456;12.626;2023-05-10T02:28:27;6.67;;;5.97;;
13331;SDS011;6735;51.456;12.626;2023-05-10T02:30:54;6.43;;;5.90;;
13331;SDS011;6735;51.456;12.626;2023-05-10T02:33:20;6.43;;;5.83;;
13331;SDS011;6735;51.456;12.626;2023-05-10T02:35:47;6.37;;;5.87;;
13331;SDS011;6735;51.456;12.626;2023-05-10T02:38:14;6.60;;;5.93;;
13331;SDS011;6735;51.456;12.626;2023-05-10T02:40:41;6.67;;;6.10;;
13331;SDS011;6735;51.456;12.626;2023-05-10T02:43:07;6.43;;;5.83;;
13331;SDS011;6735;51.456;12.626;2023-05-10T02:45:37;6.63;;;6.13;;
13331;SDS011;6735;51.456;12.626;2023-05-10T02:48:04;7.23;;;6.20;;
13331;SDS011;6735;51.456;12.626;2023-05-10T02:50:29;6.40;;;5.67;;
13331;SDS011;6735;51.456;12.626;2023-05-10T02:52:59;6.57;;;5.63;;
13331;SDS011;6735;51.456;12.626;2023-05-10T02:55:32;6.40;;;5.80;;
13331;SDS011;6735;51.456;12.626;2023-05-10T02:58:03;6.23;;;5.73;;
13331;SDS011;6735;51.456;12.626;2023-05-10T03:00:28;6.07;;;5.57;;
13331;SDS011;6735;51.456;12.626;2023-05-10T03:02:54;6.37;;;5.77;;
13331;SDS011;6735;51.456;12.626;2023-05-10T03:05:20;6.87;;;5.93;;
13331;SDS011;6735;51.456;12.626;2023-05-10T03:07:46;6.90;;;6.20;;
13331;SDS011;6735;51.456;12.626;2023-05-10T03:10:12;6.73;;;6.07;;
13331;SDS011;6735;51.456;12.626;2023-05-10T03:12:41;6.50;;;5.83;;
13331;SDS011;6735;51.456;12.626;2023-05-10T03:15:13;6.43;;;5.83;;
13331;SDS011;6735;51.456;12.626;2023-05-10T03:17:49;6.03;;;5.50;;
13331;SDS011;6735;51.456;12.626;2023-05-10T03:20:22;6.47;;;5.80;;
13331;SDS011;6735;51.456;12.626;2023-05-10T03:22:52;6.50;;;5.90;;
13331;SDS011;6735;51.456;12.626;2023-05-10T03:25:20;6.40;;;5.80;;
13331;SDS011;6735;51.456;12.626;2023-05-10T03:27:48;6.63;;;5.60;;
13331;SDS011;6735;51.456;12.626;2023-05-10T03:30:14;7.03;;;5.83;;
13331;SDS011;6735;51.456;12.626;2023-05-10T03:32:41;5.57;;;5.07;;
13331;SDS011;6735;51.456;12.626;2023-05-10T03:35:07;6.33;;;5.83;;
13331;SDS011;6735;51.456;12.626;2023-05-10T03:37:33;6.20;;;5.70;;
13331;SDS011;6735;51.456;12.626;2023-05-10T03:39:59;6.57;;;6.07;;
13331;SDS011;6735;51.456;12.626;2023-05-10T03:42:25;5.97;;;5.27;;
13331;SDS011;6735;51.456;12.626;2023-05-10T03:44:50;8.63;;;5.70;;
13331;SDS011;6735;51.456;12.626;2023-05-10T03:47:16;6.33;;;5.53;;
13331;SDS011;6735;51.456;12.626;2023-05-10T03:49:41;7.00;;;5.90;;
13331;SDS011;6735;51.456;12.626;2023-05-10T03:52:07;5.90;;;5.40;;
13331;SDS011;6735;51.456;12.626;2023-05-10T03:54:32;6.83;;;6.00;;
13331;SDS011;6735;51.456;12.626;2023-05-10T03:56:58;6.57;;;5.77;;
13331;SDS011;6735;51.456;12.626;2023-05-10T03:59:25;6.30;;;5.70;;
13331;SDS011;6735;51.456;12.626;2023-05-10T04:01:50;7.20;;;5.50;;
13331;SDS011;6735;51.456;12.626;2023-05-10T04:04:16;6.60;;;5.67;;
13331;SDS011;6735;51.456;12.626;2023-05-10T04:06:43;6.33;;;5.83;;
13331;SDS011;6735;51.456;12.626;2023-05-10T04:09:09;7.67;;;6.03;;
13331;SDS011;6735;51.456;12.626;2023-05-10T04:11:34;9.73;;;6.63;;
13331;SDS011;6735;51.456;12.626;2023-05-10T04:14:00;6.27;;;5.70;;
13331;SDS011;6735;51.456;12.626;2023-05-10T04:16:25;7.07;;;6.00;;
13331;SDS011;6735;51.456;12.626;2023-05-10T04:18:51;6.57;;;5.97;;
13331;SDS011;6735;51.456;12.626;2023-05-10T04:21:16;6.97;;;5.87;;
13331;SDS011;6735;51.456;12.626;2023-05-10T04:23:41;6.40;;;5.90;;
13331;SDS011;6735;51.456;12.626;2023-05-10T04:26:07;6.37;;;5.80;;
13331;SDS011;6735;51.456;12.626;2023-05-10T04:28:32;7.27;;;6.27;;
13331;SDS011;6735;51.456;12.626;2023-05-10T04:31:02;6.30;;;5.80;;
13331;SDS011;6735;51.456;12.626;2023-05-10T04:33:27;6.30;;;5.63;;
13331;SDS011;6735;51.456;12.626;2023-05-10T04:35:53;6.37;;;5.87;;
13331;SDS011;6735;51.456;12.626;2023-05-10T04:38:18;8.33;;;6.10;;
13331;SDS011;6735;51.456;12.626;2023-05-10T04:40:43;6.67;;;6.07;;
13331;SDS011;6735;51.456;12.626;2023-05-10T04:43:09;6.47;;;5.67;;
13331;SDS011;6735;51.456;12.626;2023-05-10T04:45:34;6.43;;;5.90;;
13331;SDS011;6735;51.456;12.626;2023-05-10T04:48:00;8.23;;;5.97;;
13331;SDS011;6735;51.456;12.626;2023-05-10T04:50:29;5.60;;;5.03;;
13331;SDS011;6735;51.456;12.626;2023-05-10T04:52:54;6.70;;;6.00;;
13331;SDS011;6735;51.456;12.626;2023-05-10T04:55:20;7.07;;;5.53;;
13331;SDS011;6735;51.456;12.626;2023-05-10T04:57:45;5.67;;;5.17;;
13331;SDS011;6735;51.456;12.626;2023-05-10T05:00:11;6.03;;;5.47;;
13331;SDS011;6735;51.456;12.626;2023-05-10T05:02:37;7.17;;;4.97;;
13331;SDS011;6735;51.456;12.626;2023-05-10T05:05:03;5.97;;;4.97;;
13331;SDS011;6735;51.456;12.626;2023-05-10T05:07:28;5.17;;;4.67;;
13331;SDS011;6735;51.456;12.626;2023-05-10T05:09:55;5.37;;;4.97;;
13331;SDS011;6735;51.456;12.626;2023-05-10T05:12:21;9.13;;;5.00;;
13331;SDS011;6735;51.456;12.626;2023-05-10T05:14:46;7.47;;;4.90;;
13331;SDS011;6735;51.456;12.626;2023-05-10T05:17:12;5.37;;;4.97;;
13331;SDS011;6735;51.456;12.626;2023-05-10T05:19:37;5.37;;;4.60;;
13331;SDS011;6735;51.456;12.626;2023-05-10T05:22:03;5.43;;;4.47;;
13331;SDS011;6735;51.456;12.626;2023-05-10T05:24:28;5.13;;;4.67;;
13331;SDS011;6735;51.456;12.626;2023-05-10T05:26:53;6.37;;;4.40;;
13331;SDS011;6735;51.456;12.626;2023-05-10T05:29:19;5.77;;;4.53;;
13331;SDS011;6735;51.456;12.626;2023-05-10T05:31:44;4.60;;;4.20;;
13331;SDS011;6735;51.456;12.626;2023-05-10T05:34:10;4.50;;;4.10;;
13331;SDS011;6735;51.456;12.626;2023-05-10T05:36:36;6.37;;;4.93;;
13331;SDS011;6735;51.456;12.626;2023-05-10T05:39:03;5.30;;;4.30;;
13331;SDS011;6735;51.456;12.626;2023-05-10T05:41:28;4.90;;;4.50;;
13331;SDS011;6735;51.456;12.626;2023-05-10T05:43:54;4.43;;;4.03;;
13331;SDS011;6735;51.456;12.626;2023-05-10T05:46:19;4.50;;;4.10;;
13331;SDS011;6735;51.456;12.626;2023-05-10T05:48:45;6.30;;;4.27;;
13331;SDS011;6735;51.456;12.626;2023-05-10T05:51:10;5.70;;;4.27;;
13331;SDS011;6735;51.456;12.626;2023-05-10T05:53:36;4.60;;;4.20;;
13331;SDS011;6735;51.456;12.626;2023-05-10T05:56:02;4.53;;;3.80;;
13331;SDS011;6735;51.456;12.626;2023-05-10T05:58:28;4.77;;;4.37;;
13331;SDS011;6735;51.456;12.626;2023-05-10T06:00:53;4.30;;;3.90;;
13331;SDS011;6735;51.456;12.626;2023-05-10T06:03:19;5.43;;;4.13;;
13331;SDS011;6735;51.456;12.626;2023-05-10T06:05:45;6.77;;;4.20;;
13331;SDS011;6735;51.456;12.626;2023-05-10T06:08:11;4.73;;;4.17;;
13331;SDS011;6735;51.456;12.626;2023-05-10T06:10:36;4.50;;;4.20;;
13331;SDS011;6735;51.456;12.626;2023-05-10T06:13:02;4.17;;;3.83;;
13331;SDS011;6735;51.456;12.626;2023-05-10T06:15:28;4.50;;;4.10;;
13331;SDS011;6735;51.456;12.626;2023-05-10T06:17:53;5.53;;;4.33;;
13331;SDS011;6735;51.456;12.626;2023-05-10T06:20:19;4.53;;;4.13;;
13331;SDS011;6735;51.456;12.626;2023-05-10T06:22:44;4.60;;;4.10;;
13331;SDS011;6735;51.456;12.626;2023-05-10T06:25:10;4.30;;;3.80;;
13331;SDS011;6735;51.456;12.626;2023-05-10T06:27:36;4.70;;;4.30;;
13331;SDS011;6735;51.456;12.626;2023-05-10T06:30:01;4.60;;;4.20;;
13331;SDS011;6735;51.456;12.626;2023-05-10T06:32:27;6.23;;;4.13;;
13331;SDS011;6735;51.456;12.626;2023-05-10T06:34:53;4.90;;;4.20;;
13331;SDS011;6735;51.456;12.626;2023-05-10T06:37:18;4.70;;;4.33;;
13331;SDS011;6735;51.456;12.626;2023-05-10T06:39:44;4.90;;;4.37;;
13331;SDS011;6735;51.456;12.626;2023-05-10T06:42:09;6.17;;;4.30;;
13331;SDS011;6735;51.456;12.626;2023-05-10T06:44:35;5.63;;;4.20;;
13331;SDS011;6735;51.456;12.626;2023-05-10T06:47:00;5.33;;;4.40;;
13331;SDS011;6735;51.456;12.626;2023-05-10T06:49:26;4.40;;;4.10;;
13331;SDS011;6735;51.456;12.626;2023-05-10T06:51:52;6.10;;;4.07;;
13331;SDS011;6735;51.456;12.626;2023-05-10T06:54:17;4.80;;;4.30;;
13331;SDS011;6735;51.456;12.626;2023-05-10T06:56:43;4.73;;;4.20;;
13331;SDS011;6735;51.456;12.626;2023-05-10T06:59:08;4.80;;;4.40;;
13331;SDS011;6735;51.456;12.626;2023-05-10T07:01:34;4.73;;;4.33;;
13331;SDS011;6735;51.456;12.626;2023-05-10T07:03:59;4.43;;;4.03;;
13331;SDS011;6735;51.456;12.626;2023-05-10T07:06:25;6.40;;;4.20;;
13331;SDS011;6735;51.456;12.626;2023-05-10T07:08:50;4.60;;;4.17;;
13331;SDS011;6735;51.456;12.626;2023-05-10T07:11:16;5.50;;;4.20;;
13331;SDS011;6735;51.456;12.626;2023-05-10T07:13:41;5.57;;;4.13;;
13331;SDS011;6735;51.456;12.626;2023-05-10T07:16:09;4.30;;;4.00;;
13331;SDS011;6735;51.456;12.626;2023-05-10T07:18:34;4.33;;;3.93;;
13331;SDS011;6735;51.456;12.626;2023-05-10T07:21:00;4.77;;;4.20;;
13331;SDS011;6735;51.456;12.626;2023-05-10T07:23:26;4.23;;;3.70;;
13331;SDS011;6735;51.456;12.626;2023-05-10T07:25:52;5.43;;;4.03;;
13331;SDS011;6735;51.456;12.626;2023-05-10T07:28:17;4.00;;;3.60;;
13331;SDS011;6735;51.456;12.626;2023-05-10T07:30:43;4.47;;;3.67;;
13331;SDS011;6735;51.456;12.626;2023-05-10T07:33:09;5.90;;;4.17;;
13331;SDS011;6735;51.456;12.626;2023-05-10T07:35:36;9.40;;;3.97;;
13331;SDS011;6735;51.456;12.626;2023-05-10T07:38:02;6.30;;;4.20;;
13331;SDS011;6735;51.456;12.626;2023-05-10T07:40:27;4.47;;;4.07;;
13331;SDS011;6735;51.456;12.626;2023-05-10T07:42:53;3.87;;;3.50;;
13331;SDS011;6735;51.456;12.626;2023-05-10T07:45:19;4.47;;;4.07;;
13331;SDS011;6735;51.456;12.626;2023-05-10T07:47:44;4.80;;;4.40;;
13331;SDS011;6735;51.456;12.626;2023-05-10T07:50:10;7.33;;;4.13;;
13331;SDS011;6735;51.456;12.626;2023-05-10T07:52:35;5.17;;;3.90;;
13331;SDS011;6735;51.456;12.626;2023-05-10T07:55:01;4.47;;;4.00;;
13331;SDS011;6735;51.456;12.626;2023-05-10T07:57:26;4.30;;;3.90;;
13331;SDS011;6735;51.456;12.626;2023-05-10T07:59:52;7.23;;;4.07;;
13331;SDS011;6735;51.456;12.626;2023-05-10T08:02:17;9.07;;;8.17;;
13331;SDS011;6735;51.456;12.626;2023-05-10T08:04:43;6.87;;;4.30;;
13331;SDS011;6735;51.456;12.626;2023-05-10T08:07:08;5.03;;;4.47;;
13331;SDS011;6735;51.456;12.626;2023-05-10T08:09:33;5.40;;;4.20;;
13331;SDS011;6735;51.456;12.626;2023-05-10T08:11:59;5.37;;;4.27;;
13331;SDS011;6735;51.456;12.626;2023-05-10T08:14:25;4.67;;;4.00;;
13331;SDS011;6735;51.456;12.626;2023-05-10T08:16:50;4.90;;;4.50;;
13331;SDS011;6735;51.456;12.626;2023-05-10T08:19:16;4.57;;;4.17;;
13331;SDS011;6735;51.456;12.626;2023-05-10T08:21:44;4.57;;;4.10;;
13331;SDS011;6735;51.456;12.626;2023-05-10T08:24:10;4.73;;;4.20;;
13331;SDS011;6735;51.456;12.626;2023-05-10T08:26:36;4.60;;;4.20;;
13331;SDS011;6735;51.456;12.626;2023-05-10T08:29:01;5.57;;;4.17;;
13331;SDS011;6735;51.456;12.626;2023-05-10T08:31:27;6.30;;;4.00;;
13331;SDS011;6735;51.456;12.626;2023-05-10T08:33:52;4.47;;;4.07;;
13331;SDS011;6735;51.456;12.626;2023-05-10T08:36:18;6.27;;;4.80;;
13331;SDS011;6735;51.456;12.626;2023-05-10T08:38:46;7.10;;;4.73;;
13331;SDS011;6735;51.456;12.626;2023-05-10T08:41:14;6.07;;;4.47;;
13331;SDS011;6735;51.456;12.626;2023-05-10T08:43:40;5.20;;;4.60;;
13331;SDS011;6735;51.456;12.626;2023-05-10T08:46:11;5.17;;;4.67;;
13331;SDS011;6735;51.456;12.626;2023-05-10T08:48:42;6.57;;;4.60;;
13331;SDS011;6735;51.456;12.626;2023-05-10T08:51:09;5.90;;;4.50;;
13331;SDS011;6735;51.456;12.626;2023-05-10T08:53:47;6.27;;;4.33;;
13331;SDS011;6735;51.456;12.626;2023-05-10T08:56:13;6.83;;;4.60;;
13331;SDS011;6735;51.456;12.626;2023-05-10T08:58:40;4.70;;;4.30;;
13331;SDS011;6735;51.456;12.626;2023-05-10T09:01:06;4.60;;;4.30;;
13331;SDS011;6735;51.456;12.626;2023-05-10T09:03:32;4.70;;;4.30;;
13331;SDS011;6735;51.456;12.626;2023-05-10T09:05:58;6.23;;;4.80;;
13331;SDS011;6735;51.456;12.626;2023-05-10T09:08:24;5.50;;;4.33;;
13331;SDS011;6735;51.456;12.626;2023-05-10T09:10:53;6.90;;;4.43;;
13331;SDS011;6735;51.456;12.626;2023-05-10T09:13:19;5.40;;;4.53;;
13331;SDS011;6735;51.456;12.626;2023-05-10T09:15:46;6.03;;;4.53;;
13331;SDS011;6735;51.456;12.626;2023-05-10T09:18:13;7.00;;;4.23;;
13331;SDS011;6735;51.456;12.626;2023-05-10T09:20:38;4.83;;;4.33;;
13331;SDS011;6735;51.456;12.626;2023-05-10T09:23:05;5.53;;;5.03;;
13331;SDS011;6735;51.456;12.626;2023-05-10T09:25:30;5.13;;;4.63;;
13331;SDS011;6735;51.456;12.626;2023-05-10T09:27:58;4.93;;;4.43;;
13331;SDS011;6735;51.456;12.626;2023-05-10T09:32:50;5.30;;;4.80;;
13331;SDS011;6735;51.456;12.626;2023-05-10T09:35:16;4.90;;;4.50;;
13331;SDS011;6735;51.456;12.626;2023-05-10T09:37:46;5.63;;;5.13;;
13331;SDS011;6735;51.456;12.626;2023-05-10T09:40:14;5.23;;;4.80;;
13331;SDS011;6735;51.456;12.626;2023-05-10T09:43:01;6.67;;;4.80;;
13331;SDS011;6735;51.456;12.626;2023-05-10T09:45:31;5.77;;;4.40;;
13331;SDS011;6735;51.456;12.626;2023-05-10T09:47:59;4.70;;;4.30;;
13331;SDS011;6735;51.456;12.626;2023-05-10T09:50:26;6.40;;;4.43;;
13331;SDS011;6735;51.456;12.626;2023-05-10T09:55:20;5.70;;;4.67;;
13331;SDS011;6735;51.456;12.626;2023-05-10T09:58:11;5.47;;;5.00;;
13331;SDS011;6735;51.456;12.626;2023-05-10T10:00:41;5.87;;;5.27;;
13331;SDS011;6735;51.456;12.626;2023-05-10T10:03:13;5.47;;;4.97;;
13331;SDS011;6735;51.456;12.626;2023-05-10T10:05:40;5.17;;;4.77;;
13331;SDS011;6735;51.456;12.626;2023-05-10T10:08:07;5.77;;;5.17;;
13331;SDS011;6735;51.456;12.626;2023-05-10T10:10:33;5.20;;;4.80;;
13331;SDS011;6735;51.456;12.626;2023-05-10T10:12:59;5.23;;;4.73;;
13331;SDS011;6735;51.456;12.626;2023-05-10T10:15:25;5.33;;;4.83;;
13331;SDS011;6735;51.456;12.626;2023-05-10T10:17:51;5.40;;;4.90;;
13331;SDS011;6735;51.456;12.626;2023-05-10T10:20:18;6.60;;;5.27;;
13331;SDS011;6735;51.456;12.626;2023-05-10T10:22:45;5.67;;;5.17;;
13331;SDS011;6735;51.456;12.626;2023-05-10T10:25:12;5.20;;;4.80;;
13331;SDS011;6735;51.456;12.626;2023-05-10T10:27:45;6.97;;;5.10;;
13331;SDS011;6735;51.456;12.626;2023-05-10T10:35:57;6.10;;;5.60;;
13331;SDS011;6735;51.456;12.626;2023-05-10T10:38:24;5.87;;;5.37;;
13331;SDS011;6735;51.456;12.626;2023-05-10T10:41:03;6.83;;;5.60;;
13331;SDS011;6735;51.456;12.626;2023-05-10T10:43:35;7.67;;;6.00;;
13331;SDS011;6735;51.456;12.626;2023-05-10T10:48:48;6.13;;;5.53;;
13331;SDS011;6735;51.456;12.626;2023-05-10T10:51:32;6.23;;;5.73;;
13331;SDS011;6735;51.456;12.626;2023-05-10T10:54:08;6.63;;;5.93;;
13331;SDS011;6735;51.456;12.626;2023-05-10T10:56:35;6.20;;;5.53;;
13331;SDS011;6735;51.456;12.626;2023-05-10T10:59:00;6.57;;;6.00;;
13331;SDS011;6735;51.456;12.626;2023-05-10T11:01:26;7.47;;;5.60;;
13331;SDS011;6735;51.456;12.626;2023-05-10T11:06:30;6.20;;;5.60;;
13331;SDS011;6735;51.456;12.626;2023-05-10T11:08:56;6.77;;;5.60;;
13331;SDS011;6735;51.456;12.626;2023-05-10T11:11:22;6.07;;;5.67;;
13331;SDS011;6735;51.456;12.626;2023-05-10T11:13:48;5.77;;;5.30;;
13331;SDS011;6735;51.456;12.626;2023-05-10T11:18:57;6.47;;;5.87;;
13331;SDS011;6735;51.456;12.626;2023-05-10T11:21:33;6.33;;;5.83;;
13331;SDS011;6735;51.456;12.626;2023-05-10T11:24:00;6.33;;;5.83;;
13331;SDS011;6735;51.456;12.626;2023-05-10T11:26:31;6.70;;;6.07;;
13331;SDS011;6735;51.456;12.626;2023-05-10T11:28:59;6.93;;;6.33;;
13331;SDS011;6735;51.456;12.626;2023-05-10T11:31:26;7.27;;;6.37;;
13331;SDS011;6735;51.456;12.626;2023-05-10T11:33:53;8.40;;;6.27;;
13331;SDS011;6735;51.456;12.626;2023-05-10T11:36:22;6.23;;;5.70;;
13331;SDS011;6735;51.456;12.626;2023-05-10T11:38:50;7.60;;;5.97;;
13331;SDS011;6735;51.456;12.626;2023-05-10T11:41:17;6.83;;;6.13;;
13331;SDS011;6735;51.456;12.626;2023-05-10T11:43:46;6.27;;;5.87;;
13331;SDS011;6735;51.456;12.626;2023-05-10T11:46:14;6.30;;;5.80;;
13331;SDS011;6735;51.456;12.626;2023-05-10T11:48:43;7.27;;;6.57;;
13331;SDS011;6735;51.456;12.626;2023-05-10T11:51:09;6.60;;;6.10;;
13331;SDS011;6735;51.456;12.626;2023-05-10T11:53:35;6.50;;;5.93;;
13331;SDS011;6735;51.456;12.626;2023-05-10T11:56:08;7.27;;;6.73;;
13331;SDS011;6735;51.456;12.626;2023-05-10T11:58:35;7.17;;;6.60;;
13331;SDS011;6735;51.456;12.626;2023-05-10T12:01:02;7.23;;;6.17;;
13331;SDS011;6735;51.456;12.626;2023-05-10T12:03:29;6.87;;;6.27;;
13331;SDS011;6735;51.456;12.626;2023-05-10T12:05:56;7.03;;;6.53;;
13331;SDS011;6735;51.456;12.626;2023-05-10T12:08:23;7.30;;;6.60;;
13331;SDS011;6735;51.456;12.626;2023-05-10T12:10:50;6.83;;;6.33;;
13331;SDS011;6735;51.456;12.626;2023-05-10T12:13:16;7.33;;;6.73;;
13331;SDS011;6735;51.456;12.626;2023-05-10T12:15:43;7.20;;;6.50;;
13331;SDS011;6735;51.456;12.626;2023-05-10T12:18:09;7.13;;;6.30;;
13331;SDS011;6735;51.456;12.626;2023-05-10T12:20:36;6.83;;;6.33;;
13331;SDS011;6735;51.456;12.626;2023-05-10T12:23:02;7.43;;;6.13;;
13331;SDS011;6735;51.456;12.626;2023-05-10T12:25:32;6.60;;;6.00;;
13331;SDS011;6735;51.456;12.626;2023-05-10T12:27:59;6.53;;;5.93;;
13331;SDS011;6735;51.456;12.626;2023-05-10T12:30:28;7.00;;;6.30;;
13331;SDS011;6735;51.456;12.626;2023-05-10T12:32:59;7.03;;;6.43;;
13331;SDS011;6735;51.456;12.626;2023-05-10T12:35:32;7.63;;;6.93;;
13331;SDS011;6735;51.456;12.626;2023-05-10T12:37:58;7.30;;;6.70;;
13331;SDS011;6735;51.456;12.626;2023-05-10T12:40:23;7.00;;;6.40;;
13331;SDS011;6735;51.456;12.626;2023-05-10T12:42:49;6.60;;;6.03;;
13331;SDS011;6735;51.456;12.626;2023-05-10T12:45:17;6.73;;;6.23;;
13331;SDS011;6735;51.456;12.626;2023-05-10T12:47:42;6.40;;;5.90;;
13331;SDS011;6735;51.456;12.626;2023-05-10T12:50:08;6.80;;;6.20;;
13331;SDS011;6735;51.456;12.626;2023-05-10T12:52:34;6.43;;;5.90;;
13331;SDS011;6735;51.456;12.626;2023-05-10T12:54:59;6.57;;;6.07;;
13331;SDS011;6735;51.456;12.626;2023-05-10T12:57:25;6.50;;;6.00;;
13331;SDS011;6735;51.456;12.626;2023-05-10T12:59:51;6.60;;;6.00;;
13331;SDS011;6735;51.456;12.626;2023-05-10T13:02:17;6.60;;;6.10;;
13331;SDS011;6735;51.456;12.626;2023-05-10T13:04:43;6.83;;;6.20;;
13331;SDS011;6735;51.456;12.626;2023-05-10T13:07:09;6.80;;;6.30;;
13331;SDS011;6735;51.456;12.626;2023-05-10T13:09:35;6.97;;;6.47;;
13331;SDS011;6735;51.456;12.626;2023-05-10T13:12:01;5.97;;;5.57;;
13331;SDS011;6735;51.456;12.626;2023-05-10T13:14:27;7.00;;;6.10;;
13331;SDS011;6735;51.456;12.626;2023-05-10T13:16:53;6.20;;;5.70;;
13331;SDS011;6735;51.456;12.626;2023-05-10T13:19:18;6.40;;;5.90;;
13331;SDS011;6735;51.456;12.626;2023-05-10T13:21:44;6.97;;;6.40;;
13331;SDS011;6735;51.456;12.626;2023-05-10T13:24:10;7.10;;;6.60;;
13331;SDS011;6735;51.456;12.626;2023-05-10T13:26:38;7.20;;;5.90;;
13331;SDS011;6735;51.456;12.626;2023-05-10T13:29:04;6.93;;;6.43;;
13331;SDS011;6735;51.456;12.626;2023-05-10T13:31:29;7.17;;;6.47;;
13331;SDS011;6735;51.456;12.626;2023-05-10T13:33:55;6.57;;;6.07;;
13331;SDS011;6735;51.456;12.626;2023-05-10T13:36:20;6.73;;;6.10;;
13331;SDS011;6735;51.456;12.626;2023-05-10T13:38:47;7.97;;;6.50;;
13331;SDS011;6735;51.456;12.626;2023-05-10T13:41:13;6.80;;;6.20;;
13331;SDS011;6735;51.456;12.626;2023-05-10T13:43:38;7.00;;;6.40;;
13331;SDS011;6735;51.456;12.626;2023-05-10T13:46:04;7.27;;;6.60;;
13331;SDS011;6735;51.456;12.626;2023-05-10T13:48:30;8.80;;;6.57;;
13331;SDS011;6735;51.456;12.626;2023-05-10T13:50:55;7.03;;;6.53;;
13331;SDS011;6735;51.456;12.626;2023-05-10T13:53:21;7.50;;;6.83;;
13331;SDS011;6735;51.456;12.626;2023-05-10T13:55:47;7.03;;;6.43;;
13331;SDS011;6735;51.456;12.626;2023-05-10T13:58:12;7.37;;;6.87;;
13331;SDS011;6735;51.456;12.626;2023-05-10T14:00:38;7.63;;;6.93;;
13331;SDS011;6735;51.456;12.626;2023-05-10T14:03:03;7.93;;;7.33;;
13331;SDS011;6735;51.456;12.626;2023-05-10T14:05:30;7.57;;;6.77;;
13331;SDS011;6735;51.456;12.626;2023-05-10T14:07:55;7.63;;;7.03;;
13331;SDS011;6735;51.456;12.626;2023-05-10T14:10:21;7.20;;;6.70;;
13331;SDS011;6735;51.456;12.626;2023-05-10T14:12:46;7.93;;;6.87;;
13331;SDS011;6735;51.456;12.626;2023-05-10T14:15:12;7.03;;;6.53;;
13331;SDS011;6735;51.456;12.626;2023-05-10T14:17:37;6.50;;;6.10;;
13331;SDS011;6735;51.456;12.626;2023-05-10T14:20:03;6.50;;;6.00;;
13331;SDS011;6735;51.456;12.626;2023-05-10T14:22:29;6.67;;;6.07;;
13331;SDS011;6735;51.456;12.626;2023-05-10T14:24:54;7.03;;;6.43;;
13331;SDS011;6735;51.456;12.626;2023-05-10T14:27:20;6.43;;;5.93;;
13331;SDS011;6735;51.456;12.626;2023-05-10T14:29:46;6.90;;;6.30;;
13331;SDS011;6735;51.456;12.626;2023-05-10T14:32:12;6.47;;;5.97;;
13331;SDS011;6735;51.456;12.626;2023-05-10T14:34:37;5.60;;;5.20;;
13331;SDS011;6735;51.456;12.626;2023-05-10T14:37:03;5.03;;;4.57;;
13331;SDS011;6735;51.456;12.626;2023-05-10T14:39:29;4.90;;;4.50;;
13331;SDS011;6735;51.456;12.626;2023-05-10T14:41:55;4.67;;;4.33;;
13331;SDS011;6735;51.456;12.626;2023-05-10T14:44:21;4.87;;;4.47;;
13331;SDS011;6735;51.456;12.626;2023-05-10T14:46:46;5.27;;;4.87;;
13331;SDS011;6735;51.456;12.626;2023-05-10T14:49:13;5.40;;;5.00;;
13331;SDS011;6735;51.456;12.626;2023-05-10T14:51:38;5.03;;;4.67;;
13331;SDS011;6735;51.456;12.626;2023-05-10T14:54:04;5.40;;;4.90;;
13331;SDS011;6735;51.456;12.626;2023-05-10T14:56:29;5.10;;;4.80;;
13331;SDS011;6735;51.456;12.626;2023-05-10T14:58:56;5.07;;;4.67;;
13331;SDS011;6735;51.456;12.626;2023-05-10T15:01:22;4.77;;;4.37;;
13331;SDS011;6735;51.456;12.626;2023-05-10T15:03:47;4.33;;;4.03;;
13331;SDS011;6735;51.456;12.626;2023-05-10T15:06:13;4.60;;;4.20;;
13331;SDS011;6735;51.456;12.626;2023-05-10T15:08:40;4.27;;;3.97;;
13331;SDS011;6735;51.456;12.626;2023-05-10T15:11:06;4.00;;;3.60;;
13331;SDS011;6735;51.456;12.626;2023-05-10T15:13:31;4.07;;;3.77;;